Time;durP1;ratioP1;P1;durP2;ratioP2;P2;SDS_P1;SDS_P2;PMS_P1;PMS_P2;Temp;Humidity;BMP_temperature;BMP_pressure;BME280_temperature;BME280_humidity;BME280_pressure;Samples;Min_cycle;Max_cycle;Signal;HPM_P1;HPM_P2
2022/06/25 00:00:08;;;;;;;1004.88;940.40;;;;;;;26.93;49.74;100437.56;695830;28;44363;-64
2022/06/25 00:00:29;;;;;;;976.30;912.13;;;;;;;26.92;50.27;100440.63;694853;28;44399;-63
2022/06/25 00:00:50;;;;;;;969.80;905.55;;;;;;;26.89;50.08;100444.81;695142;28;45171;-64
2022/06/25 00:01:13;;;;;;;976.28;911.92;;;;;;;26.87;50.21;100430.44;696902;28;22374;-63
2022/06/25 00:01:35;;;;;;;981.13;916.40;;;;;;;26.88;50.40;100440.41;694542;28;69713;-63
2022/06/25 00:01:56;;;;;;;972.92;908.53;;;;;;;26.86;50.54;100441.81;696222;28;22390;-64
2022/06/25 00:02:19;;;;;;;1000.47;938.03;;;;;;;26.85;50.80;100449.31;699125;28;40971;-64
2022/06/25 00:02:40;;;;;;;1002.78;943.63;;;;;;;26.84;50.37;100444.06;697949;28;44212;-64
2022/06/25 00:03:01;;;;;;;1013.42;952.40;;;;;;;26.82;50.56;100429.66;699199;28;21599;-64
2022/06/25 00:03:22;;;;;;;1007.97;945.27;;;;;;;26.84;50.01;100446.81;698022;28;46311;-64
2022/06/25 00:03:44;;;;;;;931.65;875.65;;;;;;;26.83;50.14;100442.38;697354;28;46338;-64
2022/06/25 00:05:27;;;;;;;863.88;814.92;;;;;;;26.83;50.00;100443.19;698424;28;22427;-64
2022/06/25 00:05:27;;;;;;;897.50;846.15;;;;;;;26.79;50.68;100428.31;691936;28;161398;-64
2022/06/25 00:05:49;;;;;;;934.92;881.28;;;;;;;26.81;50.50;100439.09;695617;28;21577;-64
2022/06/25 00:06:10;;;;;;;940.40;886.38;;;;;;;26.77;50.38;100433.28;695881;28;44387;-64
2022/06/25 00:06:33;;;;;;;952.00;897.00;;;;;;;26.78;50.43;100430.22;696375;28;20858;-64
2022/06/25 00:06:54;;;;;;;968.22;911.72;;;;;;;26.77;50.82;100442.44;694494;28;69406;-64
2022/06/25 00:07:15;;;;;;;1008.95;946.58;;;;;;;26.79;50.48;100440.19;696034;28;23465;-65
2022/06/25 00:07:36;;;;;;;1014.58;950.25;;;;;;;26.78;50.28;100435.78;697371;28;23470;-64
2022/06/25 00:07:59;;;;;;;1009.70;944.45;;;;;;;26.79;50.63;100434.66;697190;28;22404;-64
2022/06/25 00:08:20;;;;;;;1008.85;942.80;;;;;;;26.79;50.68;100440.19;695096;28;69445;-64
2022/06/25 00:08:44;;;;;;;1001.25;935.50;;;;;;;26.78;50.64;100437.72;696618;28;22373;-64
2022/06/25 00:09:06;;;;;;;1004.47;938.67;;;;;;;26.76;50.26;100435.25;694147;28;92266;-64
2022/06/25 00:09:29;;;;;;;1001.42;935.70;;;;;;;26.73;50.94;100433.06;696069;28;46329;-64
2022/06/25 00:09:51;;;;;;;1006.10;942.38;;;;;;;26.70;50.66;100439.19;694075;28;45285;-64
2022/06/25 00:10:12;;;;;;;1017.63;953.72;;;;;;;26.70;50.95;100446.69;696829;28;1359;-64
2022/06/25 00:10:34;;;;;;;1011.03;946.10;;;;;;;26.70;50.68;100439.19;696994;28;46333;-64
2022/06/25 00:10:56;;;;;;;992.20;927.33;;;;;;;26.69;51.14;100445.03;694591;28;69427;-63
2022/06/25 00:12:37;;;;;;;1003.40;937.83;;;;;;;26.69;50.68;100436.72;693012;28;107342;-64
2022/06/25 00:12:59;;;;;;;976.85;912.35;;;;;;;26.67;50.81;100434.22;696795;28;20912;-63
2022/06/25 00:13:20;;;;;;;969.30;905.10;;;;;;;26.62;51.12;100426.78;695686;28;46158;-63
2022/06/25 00:13:41;;;;;;;957.88;894.33;;;;;;;26.69;50.99;100442.25;695911;28;23279;-64
2022/06/25 00:14:06;;;;;;;961.15;897.58;;;;;;;26.68;51.05;100440.59;696115;28;22386;-64
2022/06/25 00:14:27;;;;;;;966.17;902.42;;;;;;;26.67;51.04;100439.78;692834;28;115360;-64
2022/06/25 00:14:48;;;;;;;982.40;918.05;;;;;;;26.66;50.50;100438.13;694910;28;46327;-64
2022/06/25 00:15:10;;;;;;;1008.97;944.72;;;;;;;26.66;50.62;100438.13;696436;28;22191;-64
2022/06/25 00:15:32;;;;;;;1013.73;949.47;;;;;;;26.66;50.81;100432.59;694998;28;46298;-64
2022/06/25 00:15:54;;;;;;;1009.50;945.13;;;;;;;26.67;51.13;100442.53;694901;28;69403;-64
2022/06/25 00:16:15;;;;;;;1003.65;939.10;;;;;;;26.65;50.60;100433.72;695847;28;46606;-64
2022/06/25 00:16:37;;;;;;;995.75;931.75;;;;;;;26.67;51.01;100436.19;695695;28;22406;-63
2022/06/25 00:16:58;;;;;;;1008.13;944.17;;;;;;;26.67;50.53;100439.78;696256;28;21476;-64
2022/06/25 00:17:20;;;;;;;1015.72;953.53;;;;;;;26.70;50.87;100438.38;695990;28;23863;-64
2022/06/25 00:17:42;;;;;;;1023.70;959.05;;;;;;;26.69;50.74;100437.53;694353;28;69420;-64
2022/06/25 00:18:03;;;;;;;1022.38;958.28;;;;;;;26.70;50.47;100438.38;697978;28;22384;-64
2022/06/25 00:18:25;;;;;;;1023.00;958.95;;;;;;;26.68;50.46;100435.91;697734;28;47336;-65
2022/06/25 00:18:47;;;;;;;1007.17;943.80;;;;;;;26.70;50.94;100432.84;696038;28;22398;-65
2022/06/25 00:19:08;;;;;;;1003.60;940.40;;;;;;;26.71;50.43;100435.31;694317;28;70176;-64
2022/06/25 00:19:30;;;;;;;1005.63;940.22;;;;;;;26.71;50.72;100434.47;695000;28;44375;-64
2022/06/25 00:19:51;;;;;;;991.83;927.05;;;;;;;26.71;50.40;100434.47;694840;28;22424;-65
2022/06/25 00:20:13;;;;;;;988.58;923.78;;;;;;;26.71;51.03;100431.69;696752;28;22437;-65
2022/06/25 00:20:35;;;;;;;1010.33;945.35;;;;;;;26.69;50.89;100445.03;694272;28;69371;-65
2022/06/25 00:20:56;;;;;;;1026.25;960.85;;;;;;;26.66;50.57;100440.91;696358;28;21299;-65
2022/06/25 00:21:18;;;;;;;1019.83;955.10;;;;;;;26.65;50.58;100433.72;697006;28;22393;-64
2022/06/25 00:21:39;;;;;;;998.28;934.42;;;;;;;26.62;50.73;100428.72;694558;28;45224;-64
2022/06/25 00:22:01;;;;;;;973.78;911.33;;;;;;;26.62;50.62;100435.06;696789;28;22366;-64
2022/06/25 00:22:22;;;;;;;993.35;930.65;;;;;;;26.61;51.08;100433.44;696632;28;10124;-63
2022/06/25 00:22:44;;;;;;;1016.67;953.13;;;;;;;26.60;50.66;100430.97;696191;28;22395;-65
2022/06/25 00:23:06;;;;;;;1017.38;953.42;;;;;;;26.59;51.42;100432.88;695843;28;46310;-63
2022/06/25 00:23:27;;;;;;;1009.25;945.40;;;;;;;26.59;51.13;100435.66;694311;28;69283;-64
2022/06/25 00:23:49;;;;;;;1022.97;958.00;;;;;;;26.59;50.94;100435.66;696352;28;21453;-64
2022/06/25 00:24:11;;;;;;;1021.50;956.67;;;;;;;26.58;51.16;100431.25;695723;28;44348;-64
2022/06/25 00:24:34;;;;;;;1011.65;947.45;;;;;;;26.60;51.10;100430.97;694962;28;46245;-65
2022/06/25 00:24:57;;;;;;;1022.55;958.63;;;;;;;26.59;51.40;100432.06;694115;28;69428;-64
2022/06/25 00:25:18;;;;;;;1014.53;950.45;;;;;;;26.59;50.85;100434.84;695300;28;45217;-65
2022/06/25 00:25:39;;;;;;;1006.03;941.58;;;;;;;26.58;51.04;100430.41;694495;28;46244;-65
2022/06/25 00:26:01;;;;;;;1004.13;938.78;;;;;;;26.60;51.47;100439.28;696652;28;23463;-64
2022/06/25 00:26:22;;;;;;;975.20;911.03;;;;;;;26.59;50.94;100430.13;697344;28;21487;-64
2022/06/25 00:26:44;;;;;;;977.72;913.50;;;;;;;26.60;50.89;100434.56;695576;28;22418;-64
2022/06/25 00:27:06;;;;;;;969.42;905.33;;;;;;;26.59;51.04;100432.06;693676;28;69684;-64
2022/06/25 00:27:27;;;;;;;973.97;909.88;;;;;;;26.61;50.87;100430.69;695929;28;21554;-64
2022/06/25 00:27:49;;;;;;;1004.78;940.40;;;;;;;26.63;51.36;100435.94;695248;28;46152;-64
2022/06/25 00:28:11;;;;;;;997.97;934.55;;;;;;;26.58;50.95;100435.94;695741;28;21535;-64
2022/06/25 00:28:32;;;;;;;968.17;905.83;;;;;;;26.60;51.28;100436.50;694718;28;46236;-62
2022/06/25 00:28:53;;;;;;;1007.72;943.97;;;;;;;26.61;51.22;100438.13;693357;28;21533;-63
2022/06/25 00:29:18;;;;;;;1034.63;970.13;;;;;;;26.64;51.04;100447.81;692538;28;45260;-64
2022/06/25 00:29:41;;;;;;;1032.00;967.55;;;;;;;26.63;50.85;100438.69;688532;28;137933;-64
2022/06/25 00:30:05;;;;;;;1014.97;951.08;;;;;;;26.61;51.49;100439.00;693186;28;45155;-64
2022/06/25 00:30:26;;;;;;;1009.10;944.55;;;;;;;26.61;51.40;100435.38;691217;28;91252;-64
2022/06/25 00:30:47;;;;;;;1012.13;946.80;;;;;;;26.64;51.25;100439.50;694730;28;21457;-64
2022/06/25 00:31:08;;;;;;;1004.13;940.42;;;;;;;26.65;51.45;100441.16;693464;28;23685;-64
2022/06/25 00:31:30;;;;;;;906.83;854.15;;;;;;;26.63;51.11;100438.69;693604;28;23720;-64
2022/06/25 00:31:52;;;;;;;908.95;856.03;;;;;;;26.61;51.29;100432.59;692378;28;22476;-64
2022/06/25 00:32:13;;;;;;;999.83;938.83;;;;;;;26.61;51.06;100440.91;689589;28;68424;-64
2022/06/25 00:32:35;;;;;;;996.42;936.20;;;;;;;26.55;51.40;100425.47;691260;28;23515;-64
2022/06/25 00:32:57;;;;;;;969.70;912.92;;;;;;;26.58;51.69;100435.94;691674;28;21553;-64
2022/06/25 00:33:18;;;;;;;950.03;895.08;;;;;;;26.57;51.75;100434.31;691753;28;69400;-64
2022/06/25 00:33:40;;;;;;;925.50;871.92;;;;;;;26.57;51.93;100437.09;691242;28;21526;-64
2022/06/25 00:34:01;;;;;;;917.72;864.45;;;;;;;26.57;51.74;100435.13;694207;28;23372;-64
2022/06/25 00:34:23;;;;;;;927.80;874.10;;;;;;;26.57;51.84;100435.13;697039;28;21531;-65
2022/06/25 00:34:44;;;;;;;945.67;890.42;;;;;;;26.57;52.03;100437.09;691345;28;44358;-64
2022/06/25 00:35:06;;;;;;;973.92;917.00;;;;;;;26.56;51.85;100433.47;693325;28;22180;-65
2022/06/25 00:35:27;;;;;;;951.47;896.00;;;;;;;26.54;51.81;100427.41;692556;28;44376;-64
2022/06/25 00:35:49;;;;;;;960.08;904.03;;;;;;;26.56;51.84;100433.47;695701;28;22378;-64
2022/06/25 00:36:10;;;;;;;831.30;784.70;;;;;;;26.58;51.90;100439.56;694739;28;67486;-64
2022/06/25 00:36:32;;;;;;;748.70;707.85;;;;;;;26.53;51.78;100425.75;694420;28;46391;-62
2022/06/25 00:36:53;;;;;;;823.50;777.25;;;;;;;26.59;51.66;100438.44;694863;28;22239;-64
2022/06/25 00:37:20;;;;;;;700.50;662.28;;;;;;;26.54;52.14;100435.72;694618;28;46318;-64
2022/06/25 00:37:41;;;;;;;857.72;809.15;;;;;;;26.55;51.87;100442.06;692055;28;138963;-64
2022/06/25 00:38:02;;;;;;;889.83;839.13;;;;;;;26.53;51.89;100436.81;693597;28;22406;-64
2022/06/25 00:38:24;;;;;;;885.80;834.60;;;;;;;26.49;52.28;100438.53;691574;28;1517;-64
2022/06/25 00:38:46;;;;;;;950.85;893.67;;;;;;;26.48;52.02;100436.88;689385;28;44371;-64
2022/06/25 00:39:08;;;;;;;959.97;902.28;;;;;;;26.46;52.35;100436.34;689153;28;44379;-64
2022/06/25 00:39:29;;;;;;;982.33;922.67;;;;;;;26.44;52.29;100438.56;690724;28;23452;-64
2022/06/25 00:39:51;;;;;;;988.13;923.92;;;;;;;26.44;51.88;100444.09;690122;28;46343;-64
2022/06/25 00:40:14;;;;;;;1021.67;955.13;;;;;;;26.44;51.85;100444.97;692511;28;46381;-64
2022/06/25 00:40:36;;;;;;;1025.40;958.58;;;;;;;26.44;52.30;100438.56;690181;28;67315;-64
2022/06/25 00:40:57;;;;;;;1020.22;953.60;;;;;;;26.43;52.26;100443.28;693830;28;22380;-64
2022/06/25 00:41:18;;;;;;;1020.60;954.15;;;;;;;26.43;51.62;100440.53;695555;28;23440;-64
2022/06/25 00:41:40;;;;;;;1001.20;935.58;;;;;;;26.44;51.51;100441.34;693356;28;44377;-64
2022/06/25 00:42:02;;;;;;;1010.90;944.78;;;;;;;26.42;51.92;100436.09;694041;28;45682;-64
2022/06/25 00:42:23;;;;;;;1011.30;945.13;;;;;;;26.42;51.63;100438.03;695346;28;21450;-64
2022/06/25 00:42:50;;;;;;;550.53;516.78;;;;;;;26.40;51.74;100445.81;693322;28;23385;-64
2022/06/25 00:43:12;;;;;;;153.38;145.90;;;;;;;26.38;51.69;100445.28;689800;28;138761;-64
2022/06/25 00:43:38;;;;;;;145.88;138.85;;;;;;;26.33;51.76;100431.47;692701;28;46362;-64
2022/06/25 00:43:59;;;;;;;151.13;143.77;;;;;;;26.37;51.81;100441.69;686389;28;114871;-64
2022/06/25 00:44:21;;;;;;;156.82;149.13;;;;;;;26.38;51.85;100448.88;686269;28;14640;-64
2022/06/25 00:44:42;;;;;;;151.90;144.43;;;;;;;26.38;52.08;100437.81;684078;28;44789;-63
2022/06/25 00:45:06;;;;;;;156.27;148.52;;;;;;;26.40;51.58;100443.06;684361;28;43854;-64
2022/06/25 00:45:27;;;;;;;215.20;205.10;;;;;;;26.36;51.67;100440.03;682983;28;92141;-64
2022/06/25 00:45:48;;;;;;;263.38;251.20;;;;;;;26.37;51.65;100435.34;686231;28;22303;-64
2022/06/25 00:46:10;;;;;;;278.15;265.05;;;;;;;26.37;51.52;100438.09;691551;28;22396;-64
2022/06/25 00:46:32;;;;;;;268.55;255.65;;;;;;;26.36;51.83;100445.56;694451;28;21518;-64
2022/06/25 00:46:53;;;;;;;274.88;261.55;;;;;;;26.36;51.64;100433.66;693828;28;69105;-64
2022/06/25 00:47:14;;;;;;;281.42;267.60;;;;;;;26.36;51.97;100433.66;695570;28;46753;-64
2022/06/25 00:47:36;;;;;;;294.90;280.67;;;;;;;26.35;51.70;100438.38;696342;28;21496;-64
2022/06/25 00:47:57;;;;;;;296.48;282.23;;;;;;;26.35;52.09;100438.38;696267;28;22415;-64
2022/06/25 00:48:19;;;;;;;349.02;332.45;;;;;;;26.31;51.69;100436.50;697208;28;23433;-64
2022/06/25 00:48:40;;;;;;;393.27;374.50;;;;;;;26.32;51.74;100438.16;694734;28;44570;-64
2022/06/25 00:49:02;;;;;;;377.83;359.90;;;;;;;26.32;51.52;100427.09;695282;28;46297;-63
2022/06/25 00:49:23;;;;;;;321.55;306.17;;;;;;;26.29;52.35;100428.47;696691;28;21356;-65
2022/06/25 00:49:45;;;;;;;645.88;606.45;;;;;;;26.28;52.29;100432.34;695224;28;22251;-64
2022/06/25 00:50:08;;;;;;;958.65;894.45;;;;;;;26.29;51.88;100433.19;695385;28;44368;-63
2022/06/25 00:50:29;;;;;;;973.45;908.75;;;;;;;26.28;52.41;100432.34;694282;28;69385;-64
2022/06/25 00:50:51;;;;;;;1005.20;939.35;;;;;;;26.27;51.82;100436.25;695895;28;22366;-64
2022/06/25 00:51:20;;;;;;;1030.72;963.92;;;;;;;26.27;51.72;100430.72;695137;28;46114;-64
2022/06/25 00:51:44;;;;;;;939.55;878.65;;;;;;;26.25;51.96;100430.16;694447;28;60684;-64
2022/06/25 00:52:08;;;;;;;426.80;404.13;;;;;;;26.21;52.39;100427.16;693330;28;115877;-64
2022/06/25 00:52:32;;;;;;;330.17;314.35;;;;;;;26.21;51.99;100429.09;694323;28;92264;-64
2022/06/25 00:52:57;;;;;;;319.52;304.13;;;;;;;26.23;52.03;100435.16;693814;28;92063;-64
2022/06/25 00:53:19;;;;;;;360.25;342.95;;;;;;;26.20;52.54;100421.91;693285;28;115346;-65
2022/06/25 00:53:43;;;;;;;359.77;342.40;;;;;;;26.22;52.27;100434.34;695014;28;46297;-65
2022/06/25 00:54:05;;;;;;;364.55;346.95;;;;;;;26.23;52.34;100427.69;694033;28;92142;-65
2022/06/25 00:54:27;;;;;;;386.05;367.38;;;;;;;26.23;52.38;100422.16;696259;28;46106;-64
2022/06/25 00:54:51;;;;;;;365.37;347.73;;;;;;;26.25;52.11;100424.63;693604;28;46360;-64
2022/06/25 00:55:13;;;;;;;364.60;347.13;;;;;;;26.26;52.00;100421.56;693393;28;92206;-65
2022/06/25 00:55:38;;;;;;;428.83;407.77;;;;;;;26.26;52.18;100426.28;691583;28;69274;-64
2022/06/25 00:56:00;;;;;;;455.10;432.80;;;;;;;26.25;51.76;100422.69;687171;28;92285;-64
2022/06/25 00:56:23;;;;;;;417.17;396.90;;;;;;;26.24;52.40;100429.34;685960;28;44384;-63
2022/06/25 00:56:51;;;;;;;402.95;383.33;;;;;;;26.22;52.51;100428.81;685596;28;92179;-64
2022/06/25 00:57:15;;;;;;;305.85;290.92;;;;;;;26.20;51.93;100424.69;687027;28;81141;-62
2022/06/25 00:57:38;;;;;;;355.52;338.45;;;;;;;26.19;52.02;100423.84;688354;28;115144;-65
2022/06/25 00:58:02;;;;;;;342.98;326.48;;;;;;;26.18;52.02;100424.16;693930;28;69439;-64
2022/06/25 00:58:23;;;;;;;316.17;300.88;;;;;;;26.16;52.40;100426.34;693054;28;68363;-64
2022/06/25 00:58:45;;;;;;;201.32;191.55;;;;;;;26.14;52.07;100428.59;694048;28;23500;-65
2022/06/25 00:59:06;;;;;;;257.60;245.25;;;;;;;26.10;52.44;100427.50;690933;28;46377;-64
2022/06/25 00:59:29;;;;;;;331.08;315.25;;;;;;;26.09;52.62;100423.94;690128;28;21521;-64
2022/06/25 00:59:52;;;;;;;315.13;300.02;;;;;;;26.05;52.85;100429.22;687354;28;69555;-64
2022/06/25 01:00:15;;;;;;;369.63;352.02;;;;;;;26.03;52.79;100425.91;688517;28;69432;-64
2022/06/25 01:00:38;;;;;;;327.48;311.77;;;;;;;26.01;52.64;100436.44;690078;28;67583;-64
2022/06/25 01:00:59;;;;;;;313.17;298.20;;;;;;;25.97;52.74;100431.75;691735;28;69445;-64
2022/06/25 01:01:21;;;;;;;294.70;280.73;;;;;;;25.96;52.64;100436.44;694677;28;47166;-64
2022/06/25 01:01:43;;;;;;;268.08;255.20;;;;;;;25.94;53.07;100438.69;692812;28;44382;-64
2022/06/25 01:02:05;;;;;;;208.98;198.70;;;;;;;25.92;53.27;100432.59;690712;28;23468;-64
2022/06/25 01:02:27;;;;;;;344.00;327.75;;;;;;;25.90;53.19;100437.59;690669;28;69401;-65
2022/06/25 01:02:48;;;;;;;354.13;337.80;;;;;;;25.89;53.44;100436.78;691757;28;23328;-64
2022/06/25 01:03:09;;;;;;;369.00;351.65;;;;;;;25.88;53.61;100437.06;691147;28;22387;-65
2022/06/25 01:03:30;;;;;;;316.23;301.17;;;;;;;25.90;53.47;100434.84;690337;28;45266;-63
2022/06/25 01:03:53;;;;;;;334.08;317.80;;;;;;;25.90;53.30;100432.06;693938;28;21524;-64
2022/06/25 01:04:14;;;;;;;361.42;343.92;;;;;;;25.89;53.25;100442.31;695526;28;44370;-63
2022/06/25 01:04:36;;;;;;;373.98;355.90;;;;;;;25.89;53.30;100433.16;696315;28;22224;-64
2022/06/25 01:04:57;;;;;;;388.55;369.90;;;;;;;25.89;53.67;100439.56;693613;28;89131;-65
2022/06/25 01:05:19;;;;;;;398.55;379.42;;;;;;;25.88;52.90;100424.06;695462;28;45282;-64
2022/06/25 01:05:41;;;;;;;262.10;249.38;;;;;;;25.92;52.88;100431.78;691986;28;20805;-64
2022/06/25 01:06:04;;;;;;;278.35;264.42;;;;;;;25.89;53.10;100430.41;685674;28;1929;-63
2022/06/25 01:06:25;;;;;;;419.70;398.55;;;;;;;25.93;52.95;100423.19;685152;28;46053;-63
2022/06/25 01:06:48;;;;;;;464.00;441.15;;;;;;;25.96;52.95;100430.09;684453;28;67494;-63
2022/06/25 01:07:10;;;;;;;467.95;444.80;;;;;;;25.97;52.81;100429.84;685716;28;21020;-64
2022/06/25 01:07:32;;;;;;;454.67;432.13;;;;;;;26.00;53.04;100429.28;687509;28;45266;-64
2022/06/25 01:07:53;;;;;;;432.60;411.17;;;;;;;25.99;53.02;100426.78;693531;28;45039;-64
2022/06/25 01:08:14;;;;;;;435.67;414.08;;;;;;;26.00;52.90;100426.50;695927;28;22397;-64
2022/06/25 01:08:37;;;;;;;528.50;501.88;;;;;;;25.99;52.89;100426.78;694883;28;46333;-64
2022/06/25 01:08:59;;;;;;;507.38;481.90;;;;;;;26.00;52.73;100420.13;695642;28;43694;-64
2022/06/25 01:09:20;;;;;;;498.98;473.98;;;;;;;25.99;53.12;100424.84;696145;28;23509;-64
2022/06/25 01:09:41;;;;;;;457.42;434.42;;;;;;;25.96;52.82;100419.03;694849;28;44329;-64
2022/06/25 01:10:06;;;;;;;423.35;402.23;;;;;;;25.98;52.79;100422.38;694086;28;23337;-64
2022/06/25 01:10:29;;;;;;;449.05;426.63;;;;;;;25.96;53.25;100425.38;688529;28;115130;-64
2022/06/25 01:10:50;;;;;;;477.77;454.17;;;;;;;25.96;53.03;100421.81;689859;28;45280;-62
2022/06/25 01:11:11;;;;;;;456.55;434.25;;;;;;;25.96;52.69;100419.84;690982;28;21404;-64
2022/06/25 01:11:33;;;;;;;374.92;357.25;;;;;;;25.97;53.09;100416.00;687870;28;21532;-64
2022/06/25 01:11:54;;;;;;;395.35;376.67;;;;;;;25.97;53.34;100420.66;684773;28;69420;-64
2022/06/25 01:12:16;;;;;;;402.52;383.23;;;;;;;25.98;53.23;100414.88;688250;28;23437;-64
2022/06/25 01:12:37;;;;;;;436.52;415.13;;;;;;;25.99;53.12;100415.72;688242;28;22390;-64
2022/06/25 01:12:59;;;;;;;456.13;433.43;;;;;;;25.99;53.04;100424.84;687728;28;46394;-64
2022/06/25 01:13:21;;;;;;;458.02;435.13;;;;;;;26.00;53.03;100415.44;685696;28;69475;-64
2022/06/25 01:13:42;;;;;;;458.42;435.63;;;;;;;26.01;52.77;100428.13;688638;28;22398;-64
2022/06/25 01:14:07;;;;;;;400.23;380.83;;;;;;;26.01;53.05;100414.31;688155;28;46433;-64
2022/06/25 01:14:29;;;;;;;427.90;407.00;;;;;;;26.02;52.84;100415.13;685727;28;115880;-64
2022/06/25 01:15:00;;;;;;;339.23;322.60;;;;;;;26.04;52.86;100415.69;686280;28;44367;-64
2022/06/25 01:15:21;;;;;;;271.30;258.20;;;;;;;26.06;52.66;100422.56;687436;28;137578;-64
2022/06/25 01:15:43;;;;;;;279.92;266.27;;;;;;;26.06;52.90;100421.75;691808;28;45068;-64
2022/06/25 01:16:06;;;;;;;270.73;257.60;;;;;;;26.05;52.38;100420.06;695218;28;45263;-64
2022/06/25 01:16:27;;;;;;;223.68;212.77;;;;;;;26.04;52.47;100422.03;693541;28;70042;-64
2022/06/25 01:16:48;;;;;;;230.27;219.02;;;;;;;26.07;52.64;100420.63;692507;28;23462;-64
2022/06/25 01:17:10;;;;;;;227.05;215.88;;;;;;;26.06;52.83;100418.97;692858;28;23487;-64
2022/06/25 01:17:36;;;;;;;220.55;209.77;;;;;;;26.05;52.94;100420.06;689750;28;67479;-63
2022/06/25 01:17:58;;;;;;;237.70;226.07;;;;;;;26.10;52.25;100419.22;687791;28;116902;-64
2022/06/25 01:18:21;;;;;;;216.15;205.52;;;;;;;26.09;52.75;100426.69;685575;28;90320;-64
2022/06/25 01:18:42;;;;;;;202.68;192.65;;;;;;;26.09;52.21;100418.41;687376;28;46337;-64
2022/06/25 01:19:06;;;;;;;210.95;200.57;;;;;;;26.10;52.38;100422.81;688230;28;21517;-65
2022/06/25 01:19:29;;;;;;;221.30;210.30;;;;;;;26.08;52.67;100420.34;689933;28;69462;-64
2022/06/25 01:19:50;;;;;;;221.35;210.48;;;;;;;26.07;52.95;100421.44;687883;28;69570;-64
2022/06/25 01:20:13;;;;;;;215.55;204.93;;;;;;;26.08;52.94;100416.72;688036;28;20065;-65
2022/06/25 01:20:34;;;;;;;199.75;189.90;;;;;;;26.08;52.32;100420.34;688329;28;53465;-65
2022/06/25 01:20:56;;;;;;;192.40;182.90;;;;;;;26.08;52.31;100416.72;689446;28;1607;-64
2022/06/25 01:21:18;;;;;;;199.73;190.05;;;;;;;26.07;52.60;100417.88;687930;28;69195;-64
2022/06/25 01:21:41;;;;;;;189.27;180.20;;;;;;;26.08;52.82;100423.13;691139;28;21321;-64
2022/06/25 01:22:05;;;;;;;193.20;183.73;;;;;;;26.07;52.56;100415.09;687549;28;91838;-64
2022/06/25 01:22:26;;;;;;;216.18;205.52;;;;;;;26.08;52.47;100416.72;689386;28;93111;-64
2022/06/25 01:22:48;;;;;;;220.13;209.27;;;;;;;26.10;52.76;100406.22;691879;28;23527;-64
2022/06/25 01:23:10;;;;;;;232.13;220.73;;;;;;;26.13;52.50;100416.72;692142;28;46605;-62
2022/06/25 01:23:31;;;;;;;239.07;227.43;;;;;;;26.13;52.43;100419.47;695504;28;3846;-63
2022/06/25 01:23:53;;;;;;;261.27;248.63;;;;;;;26.12;52.61;100409.50;692806;28;22389;-64
2022/06/25 01:24:14;;;;;;;283.70;270.02;;;;;;;26.13;52.44;100419.47;691584;28;21533;-64
2022/06/25 01:24:37;;;;;;;311.10;296.15;;;;;;;26.10;52.68;100411.75;689825;28;44518;-63
2022/06/25 01:24:58;;;;;;;322.60;307.23;;;;;;;26.04;52.23;100412.91;688352;28;66309;-64
2022/06/25 01:25:19;;;;;;;320.95;305.65;;;;;;;26.03;52.75;100417.59;690805;28;46303;-64
2022/06/25 01:25:42;;;;;;;248.98;236.95;;;;;;;26.00;52.47;100414.59;696344;28;22373;-65
2022/06/25 01:26:03;;;;;;;289.90;276.05;;;;;;;25.96;52.67;100405.19;695531;28;46612;-64
2022/06/25 01:26:24;;;;;;;276.37;263.20;;;;;;;25.94;53.16;100416.56;696435;28;46229;-64
2022/06/25 01:26:46;;;;;;;281.50;267.90;;;;;;;25.95;52.77;100414.59;694830;28;45358;-62
2022/06/25 01:27:16;;;;;;;285.90;272.02;;;;;;;25.93;52.75;100416.84;695160;28;46643;-65
2022/06/25 01:27:38;;;;;;;262.77;250.00;;;;;;;25.92;52.96;100415.19;691845;28;137518;-65
2022/06/25 01:27:59;;;;;;;274.02;260.73;;;;;;;25.95;53.17;100418.19;692643;28;46322;-63
2022/06/25 01:28:21;;;;;;;281.05;267.77;;;;;;;25.96;52.91;100419.03;690543;28;23500;-64
2022/06/25 01:28:43;;;;;;;259.45;247.35;;;;;;;25.96;52.80;100419.03;687704;28;69394;-63
2022/06/25 01:29:04;;;;;;;201.00;191.35;;;;;;;25.96;52.85;100419.84;688347;28;22390;-64
2022/06/25 01:29:25;;;;;;;200.10;190.23;;;;;;;25.96;53.16;100411.56;690367;28;22403;-64
2022/06/25 01:29:47;;;;;;;208.23;197.80;;;;;;;25.97;53.05;100415.13;690348;28;21606;-64
2022/06/25 01:30:11;;;;;;;220.98;209.98;;;;;;;25.98;52.44;100417.66;688932;28;67496;-64
2022/06/25 01:30:32;;;;;;;223.13;212.18;;;;;;;25.99;53.05;100411.00;692600;28;67302;-64
2022/06/25 01:30:54;;;;;;;246.43;234.52;;;;;;;25.99;52.96;100416.53;690767;28;23453;-64
2022/06/25 01:31:20;;;;;;;256.67;244.38;;;;;;;26.00;52.61;100411.81;691036;28;21520;-64
2022/06/25 01:31:42;;;;;;;267.42;254.50;;;;;;;26.00;52.45;100414.59;687761;28;136614;-64
2022/06/25 01:32:04;;;;;;;288.38;274.48;;;;;;;26.00;53.19;100412.66;692137;28;22419;-64
2022/06/25 01:32:25;;;;;;;293.17;279.08;;;;;;;26.00;52.48;100412.66;688451;28;46314;-64
2022/06/25 01:32:46;;;;;;;320.13;304.70;;;;;;;25.99;52.38;100408.25;689157;28;23447;-64
2022/06/25 01:33:12;;;;;;;391.60;372.65;;;;;;;26.03;52.98;100414.00;684521;28;136637;-64
2022/06/25 01:33:36;;;;;;;732.28;689.35;;;;;;;26.04;52.88;100410.16;683997;28;115697;-64
2022/06/25 01:33:58;;;;;;;814.42;764.13;;;;;;;26.05;52.36;100411.78;689143;28;22382;-63
2022/06/25 01:34:19;;;;;;;451.20;429.80;;;;;;;26.03;52.37;100414.00;686430;28;46261;-64
2022/06/25 01:34:42;;;;;;;452.38;430.92;;;;;;;26.02;52.84;100407.66;686321;28;46731;-64
2022/06/25 01:35:04;;;;;;;450.33;428.55;;;;;;;26.03;52.69;100405.72;686863;28;46514;-64
2022/06/25 01:35:25;;;;;;;444.52;422.27;;;;;;;26.00;52.40;100404.38;685383;28;45223;-62
2022/06/25 01:35:47;;;;;;;478.55;454.65;;;;;;;26.03;52.33;100405.72;683039;28;45412;-64
2022/06/25 01:36:09;;;;;;;545.67;518.28;;;;;;;26.00;52.83;100404.38;685065;28;22399;-64
2022/06/25 01:36:30;;;;;;;446.77;424.83;;;;;;;25.99;52.90;100411.00;687767;28;46408;-64
2022/06/25 01:36:52;;;;;;;482.90;459.08;;;;;;;25.99;52.74;100407.44;688803;28;45229;-64
2022/06/25 01:37:14;;;;;;;491.88;467.48;;;;;;;25.97;52.74;100413.25;692209;28;22395;-64
2022/06/25 01:37:36;;;;;;;422.40;401.77;;;;;;;25.95;52.57;100409.88;693606;28;46381;-64
2022/06/25 01:37:58;;;;;;;441.55;419.98;;;;;;;25.92;53.13;100413.22;695704;28;46327;-64
2022/06/25 01:38:20;;;;;;;488.10;464.13;;;;;;;25.93;52.84;100405.78;697553;28;24163;-64
2022/06/25 01:38:42;;;;;;;479.17;455.70;;;;;;;25.92;53.23;100407.69;694426;28;26390;-64
2022/06/25 01:39:04;;;;;;;474.58;451.20;;;;;;;25.94;53.17;100407.41;696123;28;47411;-64
2022/06/25 01:39:25;;;;;;;454.10;431.67;;;;;;;25.92;52.89;100415.19;693961;28;45040;-64
2022/06/25 01:39:51;;;;;;;411.35;391.17;;;;;;;25.85;53.12;100408.03;691179;28;21442;-64
2022/06/25 01:40:12;;;;;;;490.23;465.98;;;;;;;25.91;52.80;100417.13;687975;28;138507;-64
2022/06/25 01:40:35;;;;;;;447.50;425.60;;;;;;;25.90;53.16;100410.75;692003;28;24272;-64
2022/06/25 01:40:56;;;;;;;429.95;409.02;;;;;;;25.89;53.23;100414.66;690543;28;44363;-64
2022/06/25 01:41:17;;;;;;;472.40;448.85;;;;;;;25.89;52.81;100416.56;690321;28;22221;-64